Aérodrome :
LOGIN :

S'inscrire | Disclaimer

   EN    FR    IT 

 










Légende :    VFR   VFR Marginal   IFR   IFR Intensif   IFR Très Intensif
Visi : 
Plafond : 
>= 8 km
>= 3000ft
5 à 8 km
1000 à 3000 ft
1500m à 5 km
500 à 1000 ft
800 à 1500m
200 à 500 ft
< 800m
< 200 ft
Symboles :   Orages  Brouillard  Fortes neiges  Fortes précipitations  Vent > 20 kt
SIGMETs :   Divers  Orages  Givrage  Turbulence  Onde Orograph.  Cendres Volcan.






- Altitude de l'aérodrome : 187 ft


ETNW - Wunstorf AB

DERNIER METAR :
  • 300320Z AUTO 23006KT 8000 // ////// M02/M10 Q1030 ///

METARs EXPIRÉS :
  • 300220Z AUTO 28004KT 8000 // ////// M03/M08 Q1031 ///
  • 300120Z AUTO 29003KT 8000 // ////// M03/M10 Q1032 ///

TAF AMD TAF ETNW
Valide du 29 à 06h jusqu'au 30 à 05h UTC


290630Z 2906/3005 02015G25KT 9999 NSW SCT010 BKN020
TEMPO 2907/2912 02020G30KT 4000 -RASN BKN010 OVC020
PROB30 2908/2911 02020G35KT 1200 SN BKN005 BKN010
BECMG 2912/2914 03010G20KT 8000 NSW FEW015 SCT030
BECMG 2918/2920 36008KT 9999 NSW FEW050 BY ETGL



MET'MAP, la Météo Aéronautique d'un coup d'oeil ! - Copyright ORBIFLY Décembre 2007 - Disclaimer

ORBIFLY MET'MAP TEAM :

Programmation & Développement : Alexandra Zaïnal
Sur une idée originale de : Baudouin d'Aumeries
Assistance à la programmation : Marc-Olivier Méhu
Soutien technique & logistique : Manuel Goepfert

Contact : metmap@orbifly.com




SOURCES & CREDITS :

   NOAA